Página principal
METAR-TAF:

METAR-TAF

Aeroportos :

Harbin, China

Aeroporto Internacional Harbin Taiping

latitude: 45-45N, longitude: 126-46E, altura: 143 m

Observação actual do tempo

O boletim foi feito há 33 minutos, às 14:00 UTC
Vento 10 kt de sul
Temperatura 16°C
Humidade 68%
Pressão 1005 hPa
Visibilidade 10 km ou mais
sem nuvens abaixo de 1500 metros e sem cumulonimbus

METAR: ZYHB 231400Z 17005MPS CAVOK 16/10 Q1005 NOSIG

Hora: 22:33 (14:33 UTC)

Previsão

O boletim foi feito há 5 horas e 31 minutos, às 09:02 UTC
Previsão válida de 23 às 12 UTC a 24 às 12 UTC
Vento 14 kt de su-sudoeste com rajadas de 25 kt
Visibilidade: 6000 m
Poucas nuvensa uma altura de 3000 ft

TAF: ZYHB 230902Z 2312/2412 20007G13MPS 6000 FEW030 TX21/2406Z TN13/2321Z

Observações e previsões do tempo de mais de 4000 aeroportos (mensagens METAR e TAF).

As estações disponíveis são os pontos amarelos e vermelhos sobre o mapa.

Mova o rato sobre o mapa para ver o nome da estação.

Depois clique no ponto para visualizar as observações e previsões meteorológicas.

Para alterar o mapa : clique nos botões verdes com uma cruz preta para aumentar o zoom; no botão verde com uma pitada de zoom; ou nas setas verdes para mapas adjacentes.


METAR-TAF: